sensor_id;sensor_type;location;lat;lon;timestamp;temperature;humidity
7518;DHT22;3800;48.922;9.444;2023-11-21T00:00:09;8.00;99.90
7518;DHT22;3800;48.922;9.444;2023-11-21T00:02:38;8.00;99.90
7518;DHT22;3800;48.922;9.444;2023-11-21T00:05:09;8.00;99.90
7518;DHT22;3800;48.922;9.444;2023-11-21T00:07:37;8.00;99.90
7518;DHT22;3800;48.922;9.444;2023-11-21T00:10:05;8.00;99.90
7518;DHT22;3800;48.922;9.444;2023-11-21T00:12:34;8.00;99.90
7518;DHT22;3800;48.922;9.444;2023-11-21T00:15:03;8.00;99.90
7518;DHT22;3800;48.922;9.444;2023-11-21T00:17:31;8.00;99.90
7518;DHT22;3800;48.922;9.444;2023-11-21T00:20:00;8.00;99.90
7518;DHT22;3800;48.922;9.444;2023-11-21T00:22:28;8.00;99.90
7518;DHT22;3800;48.922;9.444;2023-11-21T00:24:56;8.00;99.90
7518;DHT22;3800;48.922;9.444;2023-11-21T00:27:24;8.00;99.90
7518;DHT22;3800;48.922;9.444;2023-11-21T00:29:53;8.00;99.90
7518;DHT22;3800;48.922;9.444;2023-11-21T00:32:22;8.00;99.90
7518;DHT22;3800;48.922;9.444;2023-11-21T00:34:50;8.10;99.90
7518;DHT22;3800;48.922;9.444;2023-11-21T00:37:19;8.00;99.90
7518;DHT22;3800;48.922;9.444;2023-11-21T00:39:47;8.10;99.90
7518;DHT22;3800;48.922;9.444;2023-11-21T00:42:15;8.10;99.90
7518;DHT22;3800;48.922;9.444;2023-11-21T00:44:44;8.10;99.90
7518;DHT22;3800;48.922;9.444;2023-11-21T00:47:12;8.00;99.90
7518;DHT22;3800;48.922;9.444;2023-11-21T00:49:41;8.10;99.90
7518;DHT22;3800;48.922;9.444;2023-11-21T00:52:09;8.10;99.90
7518;DHT22;3800;48.922;9.444;2023-11-21T00:54:38;8.00;99.90
7518;DHT22;3800;48.922;9.444;2023-11-21T00:57:06;8.00;99.90
7518;DHT22;3800;48.922;9.444;2023-11-21T00:59:34;8.10;99.90
7518;DHT22;3800;48.922;9.444;2023-11-21T01:02:03;8.10;99.90
7518;DHT22;3800;48.922;9.444;2023-11-21T01:04:32;8.00;99.90
7518;DHT22;3800;48.922;9.444;2023-11-21T01:07:00;8.10;99.90
7518;DHT22;3800;48.922;9.444;2023-11-21T01:09:29;8.10;99.90
7518;DHT22;3800;48.922;9.444;2023-11-21T01:11:57;8.10;99.90
7518;DHT22;3800;48.922;9.444;2023-11-21T01:14:25;8.10;99.90
7518;DHT22;3800;48.922;9.444;2023-11-21T01:16:54;8.10;99.90
7518;DHT22;3800;48.922;9.444;2023-11-21T01:19:22;8.10;99.90
7518;DHT22;3800;48.922;9.444;2023-11-21T01:21:51;8.20;99.90
7518;DHT22;3800;48.922;9.444;2023-11-21T01:24:19;8.10;99.90
7518;DHT22;3800;48.922;9.444;2023-11-21T01:26:47;8.10;99.90
7518;DHT22;3800;48.922;9.444;2023-11-21T01:29:16;8.10;99.90
7518;DHT22;3800;48.922;9.444;2023-11-21T01:31:44;8.20;99.90
7518;DHT22;3800;48.922;9.444;2023-11-21T01:34:12;8.20;99.90
7518;DHT22;3800;48.922;9.444;2023-11-21T01:36:41;8.20;99.90
7518;DHT22;3800;48.922;9.444;2023-11-21T01:39:09;8.20;99.90
7518;DHT22;3800;48.922;9.444;2023-11-21T01:41:38;8.20;99.90
7518;DHT22;3800;48.922;9.444;2023-11-21T01:44:06;8.20;99.90
7518;DHT22;3800;48.922;9.444;2023-11-21T01:46:34;8.20;99.90
7518;DHT22;3800;48.922;9.444;2023-11-21T01:49:02;8.20;99.90
7518;DHT22;3800;48.922;9.444;2023-11-21T01:51:31;8.30;99.90
7518;DHT22;3800;48.922;9.444;2023-11-21T01:53:59;8.20;99.90
7518;DHT22;3800;48.922;9.444;2023-11-21T01:56:28;8.20;99.90
7518;DHT22;3800;48.922;9.444;2023-11-21T01:58:57;8.20;99.90
7518;DHT22;3800;48.922;9.444;2023-11-21T02:01:25;8.20;99.90
7518;DHT22;3800;48.922;9.444;2023-11-21T02:03:53;8.20;99.90
7518;DHT22;3800;48.922;9.444;2023-11-21T02:06:21;8.20;99.90
7518;DHT22;3800;48.922;9.444;2023-11-21T02:08:49;8.20;99.90
7518;DHT22;3800;48.922;9.444;2023-11-21T02:11:19;8.20;99.90
7518;DHT22;3800;48.922;9.444;2023-11-21T02:13:47;8.20;99.90
7518;DHT22;3800;48.922;9.444;2023-11-21T02:16:15;8.20;99.90
7518;DHT22;3800;48.922;9.444;2023-11-21T02:18:43;8.20;99.90
7518;DHT22;3800;48.922;9.444;2023-11-21T02:21:12;8.20;99.90
7518;DHT22;3800;48.922;9.444;2023-11-21T02:23:41;8.20;99.90
7518;DHT22;3800;48.922;9.444;2023-11-21T02:26:09;8.20;99.90
7518;DHT22;3800;48.922;9.444;2023-11-21T02:28:37;8.20;99.90
7518;DHT22;3800;48.922;9.444;2023-11-21T02:31:06;8.20;99.90
7518;DHT22;3800;48.922;9.444;2023-11-21T02:33:34;8.20;99.90
7518;DHT22;3800;48.922;9.444;2023-11-21T02:36:02;8.20;99.90
7518;DHT22;3800;48.922;9.444;2023-11-21T02:38:31;8.20;99.90
7518;DHT22;3800;48.922;9.444;2023-11-21T02:40:59;8.20;99.90
7518;DHT22;3800;48.922;9.444;2023-11-21T02:43:27;8.20;99.90
7518;DHT22;3800;48.922;9.444;2023-11-21T02:45:56;8.20;99.90
7518;DHT22;3800;48.922;9.444;2023-11-21T02:48:24;8.20;99.90
7518;DHT22;3800;48.922;9.444;2023-11-21T02:50:53;8.20;99.90
7518;DHT22;3800;48.922;9.444;2023-11-21T02:53:23;8.30;99.90
7518;DHT22;3800;48.922;9.444;2023-11-21T02:55:52;8.20;99.90
7518;DHT22;3800;48.922;9.444;2023-11-21T02:58:20;8.30;99.90
7518;DHT22;3800;48.922;9.444;2023-11-21T03:00:48;8.20;99.90
7518;DHT22;3800;48.922;9.444;2023-11-21T03:03:17;8.20;99.90
7518;DHT22;3800;48.922;9.444;2023-11-21T03:05:45;8.20;99.90
7518;DHT22;3800;48.922;9.444;2023-11-21T03:08:14;8.20;99.90
7518;DHT22;3800;48.922;9.444;2023-11-21T03:10:42;8.20;99.90
7518;DHT22;3800;48.922;9.444;2023-11-21T03:13:10;8.20;99.90
7518;DHT22;3800;48.922;9.444;2023-11-21T03:15:38;8.20;99.90
7518;DHT22;3800;48.922;9.444;2023-11-21T03:18:07;8.20;99.90
7518;DHT22;3800;48.922;9.444;2023-11-21T03:20:35;8.20;99.90
7518;DHT22;3800;48.922;9.444;2023-11-21T03:23:03;8.20;99.90
7518;DHT22;3800;48.922;9.444;2023-11-21T03:25:31;8.30;99.90
7518;DHT22;3800;48.922;9.444;2023-11-21T03:28:00;8.30;99.90
7518;DHT22;3800;48.922;9.444;2023-11-21T03:30:28;8.30;99.90
7518;DHT22;3800;48.922;9.444;2023-11-21T03:32:56;8.30;99.90
7518;DHT22;3800;48.922;9.444;2023-11-21T03:35:25;8.30;99.90
7518;DHT22;3800;48.922;9.444;2023-11-21T03:37:53;8.30;99.90
7518;DHT22;3800;48.922;9.444;2023-11-21T03:40:21;8.30;99.90
7518;DHT22;3800;48.922;9.444;2023-11-21T03:42:49;8.30;99.90
7518;DHT22;3800;48.922;9.444;2023-11-21T03:45:18;8.30;99.90
7518;DHT22;3800;48.922;9.444;2023-11-21T03:47:47;8.30;99.90
7518;DHT22;3800;48.922;9.444;2023-11-21T03:50:15;8.30;99.90
7518;DHT22;3800;48.922;9.444;2023-11-21T03:52:43;8.30;99.90
7518;DHT22;3800;48.922;9.444;2023-11-21T03:55:11;8.30;99.90
7518;DHT22;3800;48.922;9.444;2023-11-21T03:57:40;8.30;99.90
7518;DHT22;3800;48.922;9.444;2023-11-21T04:00:09;8.20;99.90
7518;DHT22;3800;48.922;9.444;2023-11-21T04:02:37;8.20;99.90
7518;DHT22;3800;48.922;9.444;2023-11-21T04:05:06;8.20;99.90
7518;DHT22;3800;48.922;9.444;2023-11-21T04:07:34;8.20;99.90
7518;DHT22;3800;48.922;9.444;2023-11-21T04:10:03;8.20;99.90
7518;DHT22;3800;48.922;9.444;2023-11-21T04:12:32;8.20;99.90
7518;DHT22;3800;48.922;9.444;2023-11-21T04:15:01;8.20;99.90
7518;DHT22;3800;48.922;9.444;2023-11-21T04:17:30;8.20;99.90
7518;DHT22;3800;48.922;9.444;2023-11-21T04:19:58;8.20;99.90
7518;DHT22;3800;48.922;9.444;2023-11-21T04:22:26;8.20;99.90
7518;DHT22;3800;48.922;9.444;2023-11-21T04:24:55;8.20;99.90
7518;DHT22;3800;48.922;9.444;2023-11-21T04:27:24;8.20;99.90
7518;DHT22;3800;48.922;9.444;2023-11-21T04:29:53;8.20;99.90
7518;DHT22;3800;48.922;9.444;2023-11-21T04:32:21;8.20;99.90
7518;DHT22;3800;48.922;9.444;2023-11-21T04:34:49;8.20;99.90
7518;DHT22;3800;48.922;9.444;2023-11-21T04:37:17;8.20;99.90
7518;DHT22;3800;48.922;9.444;2023-11-21T04:39:46;8.20;99.90
7518;DHT22;3800;48.922;9.444;2023-11-21T04:42:15;8.20;99.90
7518;DHT22;3800;48.922;9.444;2023-11-21T04:44:43;8.20;99.90
7518;DHT22;3800;48.922;9.444;2023-11-21T04:47:12;8.20;99.90
7518;DHT22;3800;48.922;9.444;2023-11-21T04:49:43;8.20;99.90
7518;DHT22;3800;48.922;9.444;2023-11-21T04:52:11;8.20;99.90
7518;DHT22;3800;48.922;9.444;2023-11-21T04:54:39;8.20;99.90
7518;DHT22;3800;48.922;9.444;2023-11-21T04:57:07;8.20;99.90
7518;DHT22;3800;48.922;9.444;2023-11-21T04:59:36;8.20;99.90
7518;DHT22;3800;48.922;9.444;2023-11-21T05:02:04;8.20;99.90
7518;DHT22;3800;48.922;9.444;2023-11-21T05:04:33;8.20;99.90
7518;DHT22;3800;48.922;9.444;2023-11-21T05:07:01;8.10;99.90
7518;DHT22;3800;48.922;9.444;2023-11-21T05:09:30;8.10;99.90
7518;DHT22;3800;48.922;9.444;2023-11-21T05:11:59;8.10;99.90
7518;DHT22;3800;48.922;9.444;2023-11-21T05:14:28;8.10;99.90
7518;DHT22;3800;48.922;9.444;2023-11-21T05:16:56;8.10;99.90
7518;DHT22;3800;48.922;9.444;2023-11-21T05:19:24;8.10;99.90
7518;DHT22;3800;48.922;9.444;2023-11-21T05:21:53;8.10;99.90
7518;DHT22;3800;48.922;9.444;2023-11-21T05:24:21;8.10;99.90
7518;DHT22;3800;48.922;9.444;2023-11-21T05:26:49;8.00;99.90
7518;DHT22;3800;48.922;9.444;2023-11-21T05:29:17;8.10;99.90
7518;DHT22;3800;48.922;9.444;2023-11-21T05:31:46;8.00;99.90
7518;DHT22;3800;48.922;9.444;2023-11-21T05:34:14;8.10;99.90
7518;DHT22;3800;48.922;9.444;2023-11-21T05:36:43;8.10;99.90
7518;DHT22;3800;48.922;9.444;2023-11-21T05:39:11;8.10;99.90
7518;DHT22;3800;48.922;9.444;2023-11-21T05:41:39;8.10;99.90
7518;DHT22;3800;48.922;9.444;2023-11-21T05:44:08;8.10;99.90
7518;DHT22;3800;48.922;9.444;2023-11-21T05:46:36;8.10;99.90
7518;DHT22;3800;48.922;9.444;2023-11-21T05:49:05;8.10;99.90
7518;DHT22;3800;48.922;9.444;2023-11-21T05:51:33;8.10;99.90
7518;DHT22;3800;48.922;9.444;2023-11-21T05:54:01;8.10;99.90
7518;DHT22;3800;48.922;9.444;2023-11-21T05:56:29;8.10;99.90
7518;DHT22;3800;48.922;9.444;2023-11-21T05:58:58;8.10;99.90
7518;DHT22;3800;48.922;9.444;2023-11-21T06:01:26;8.10;99.90
7518;DHT22;3800;48.922;9.444;2023-11-21T06:03:55;8.10;99.90
7518;DHT22;3800;48.922;9.444;2023-11-21T06:06:23;8.10;99.90
7518;DHT22;3800;48.922;9.444;2023-11-21T06:08:52;8.10;99.90
7518;DHT22;3800;48.922;9.444;2023-11-21T06:11:20;8.10;99.90
7518;DHT22;3800;48.922;9.444;2023-11-21T06:13:48;8.10;99.90
7518;DHT22;3800;48.922;9.444;2023-11-21T06:16:16;8.10;99.90
7518;DHT22;3800;48.922;9.444;2023-11-21T06:18:45;8.20;99.90
7518;DHT22;3800;48.922;9.444;2023-11-21T06:21:14;8.20;99.90
7518;DHT22;3800;48.922;9.444;2023-11-21T06:23:42;8.20;99.90
7518;DHT22;3800;48.922;9.444;2023-11-21T06:26:10;8.20;99.90
7518;DHT22;3800;48.922;9.444;2023-11-21T06:28:38;8.20;99.90
7518;DHT22;3800;48.922;9.444;2023-11-21T06:31:07;8.20;99.90
7518;DHT22;3800;48.922;9.444;2023-11-21T06:33:36;8.10;99.90
7518;DHT22;3800;48.922;9.444;2023-11-21T06:36:04;8.20;99.90
7518;DHT22;3800;48.922;9.444;2023-11-21T06:38:32;8.20;99.90
7518;DHT22;3800;48.922;9.444;2023-11-21T06:41:01;8.10;99.90
7518;DHT22;3800;48.922;9.444;2023-11-21T06:43:29;8.20;99.90
7518;DHT22;3800;48.922;9.444;2023-11-21T06:45:57;8.20;99.90
7518;DHT22;3800;48.922;9.444;2023-11-21T06:48:26;8.20;99.90
7518;DHT22;3800;48.922;9.444;2023-11-21T06:50:54;8.20;99.90
7518;DHT22;3800;48.922;9.444;2023-11-21T06:53:22;8.20;99.90
7518;DHT22;3800;48.922;9.444;2023-11-21T06:55:50;8.20;99.90
7518;DHT22;3800;48.922;9.444;2023-11-21T06:58:19;8.20;99.90
7518;DHT22;3800;48.922;9.444;2023-11-21T07:00:47;8.20;99.90
7518;DHT22;3800;48.922;9.444;2023-11-21T07:05:39;8.20;99.90
7518;DHT22;3800;48.922;9.444;2023-11-21T07:08:08;8.20;99.90
7518;DHT22;3800;48.922;9.444;2023-11-21T07:10:37;8.20;99.90
7518;DHT22;3800;48.922;9.444;2023-11-21T07:13:06;8.20;99.90
7518;DHT22;3800;48.922;9.444;2023-11-21T07:15:34;8.20;99.90
7518;DHT22;3800;48.922;9.444;2023-11-21T07:18:03;8.20;99.90
7518;DHT22;3800;48.922;9.444;2023-11-21T07:20:31;8.20;99.90
7518;DHT22;3800;48.922;9.444;2023-11-21T07:22:59;8.20;99.90
7518;DHT22;3800;48.922;9.444;2023-11-21T07:25:28;8.20;99.90
7518;DHT22;3800;48.922;9.444;2023-11-21T07:27:56;8.20;99.90
7518;DHT22;3800;48.922;9.444;2023-11-21T07:30:24;8.30;99.90
7518;DHT22;3800;48.922;9.444;2023-11-21T07:32:53;8.30;99.90
7518;DHT22;3800;48.922;9.444;2023-11-21T07:35:22;8.30;99.90
7518;DHT22;3800;48.922;9.444;2023-11-21T07:37:50;8.30;99.90
7518;DHT22;3800;48.922;9.444;2023-11-21T07:40:18;8.30;99.90
7518;DHT22;3800;48.922;9.444;2023-11-21T07:42:47;8.30;99.90
7518;DHT22;3800;48.922;9.444;2023-11-21T07:45:15;8.40;99.90
7518;DHT22;3800;48.922;9.444;2023-11-21T07:47:43;8.40;99.90
7518;DHT22;3800;48.922;9.444;2023-11-21T07:50:11;8.40;99.90
7518;DHT22;3800;48.922;9.444;2023-11-21T07:52:41;8.40;99.90
7518;DHT22;3800;48.922;9.444;2023-11-21T07:55:09;8.40;99.90
7518;DHT22;3800;48.922;9.444;2023-11-21T07:57:38;8.40;99.90
7518;DHT22;3800;48.922;9.444;2023-11-21T08:00:07;8.40;99.90
7518;DHT22;3800;48.922;9.444;2023-11-21T08:02:35;8.40;99.90
7518;DHT22;3800;48.922;9.444;2023-11-21T08:05:04;8.40;99.90
7518;DHT22;3800;48.922;9.444;2023-11-21T08:07:33;8.50;99.90
7518;DHT22;3800;48.922;9.444;2023-11-21T08:10:01;8.50;99.90
7518;DHT22;3800;48.922;9.444;2023-11-21T08:12:31;8.50;99.90
7518;DHT22;3800;48.922;9.444;2023-11-21T08:14:59;8.50;99.90
7518;DHT22;3800;48.922;9.444;2023-11-21T08:17:27;8.50;99.90
7518;DHT22;3800;48.922;9.444;2023-11-21T08:19:55;8.50;99.90
7518;DHT22;3800;48.922;9.444;2023-11-21T08:22:24;8.50;99.90
7518;DHT22;3800;48.922;9.444;2023-11-21T08:24:52;8.50;99.90
7518;DHT22;3800;48.922;9.444;2023-11-21T08:27:20;8.50;99.90
7518;DHT22;3800;48.922;9.444;2023-11-21T08:29:48;8.60;99.90
7518;DHT22;3800;48.922;9.444;2023-11-21T08:32:18;8.60;99.90
7518;DHT22;3800;48.922;9.444;2023-11-21T08:34:46;8.60;99.90
7518;DHT22;3800;48.922;9.444;2023-11-21T08:37:15;8.60;99.90
7518;DHT22;3800;48.922;9.444;2023-11-21T08:39:44;8.60;99.90
7518;DHT22;3800;48.922;9.444;2023-11-21T08:42:14;8.70;99.90
7518;DHT22;3800;48.922;9.444;2023-11-21T08:44:42;8.70;99.90
7518;DHT22;3800;48.922;9.444;2023-11-21T08:47:10;8.70;99.90
7518;DHT22;3800;48.922;9.444;2023-11-21T08:49:40;8.80;99.90
7518;DHT22;3800;48.922;9.444;2023-11-21T08:52:08;8.70;99.90
7518;DHT22;3800;48.922;9.444;2023-11-21T08:54:36;8.80;99.90
7518;DHT22;3800;48.922;9.444;2023-11-21T08:57:06;8.80;99.90
7518;DHT22;3800;48.922;9.444;2023-11-21T08:59:34;8.80;99.90
7518;DHT22;3800;48.922;9.444;2023-11-21T09:02:02;8.80;99.90
7518;DHT22;3800;48.922;9.444;2023-11-21T09:04:30;8.80;99.90
7518;DHT22;3800;48.922;9.444;2023-11-21T09:06:59;8.90;99.90
7518;DHT22;3800;48.922;9.444;2023-11-21T09:09:28;8.90;99.90
7518;DHT22;3800;48.922;9.444;2023-11-21T09:11:57;9.00;99.90
7518;DHT22;3800;48.922;9.444;2023-11-21T09:14:25;9.00;99.90
7518;DHT22;3800;48.922;9.444;2023-11-21T09:16:53;9.00;99.90
7518;DHT22;3800;48.922;9.444;2023-11-21T09:19:22;9.10;99.90
7518;DHT22;3800;48.922;9.444;2023-11-21T09:21:50;9.00;99.90
7518;DHT22;3800;48.922;9.444;2023-11-21T09:24:21;9.00;99.90
7518;DHT22;3800;48.922;9.444;2023-11-21T09:26:49;9.00;99.90
7518;DHT22;3800;48.922;9.444;2023-11-21T09:29:18;9.10;99.90
7518;DHT22;3800;48.922;9.444;2023-11-21T09:31:46;9.10;99.90
7518;DHT22;3800;48.922;9.444;2023-11-21T09:34:14;9.10;99.90
7518;DHT22;3800;48.922;9.444;2023-11-21T09:36:45;9.10;99.90
7518;DHT22;3800;48.922;9.444;2023-11-21T09:39:15;9.20;99.90
7518;DHT22;3800;48.922;9.444;2023-11-21T09:41:51;9.20;99.90
7518;DHT22;3800;48.922;9.444;2023-11-21T09:44:19;9.20;99.90
7518;DHT22;3800;48.922;9.444;2023-11-21T09:46:47;9.20;99.90
7518;DHT22;3800;48.922;9.444;2023-11-21T09:49:16;9.10;99.90
7518;DHT22;3800;48.922;9.444;2023-11-21T09:51:46;9.00;99.90
7518;DHT22;3800;48.922;9.444;2023-11-21T09:54:15;9.00;99.90
7518;DHT22;3800;48.922;9.444;2023-11-21T09:56:44;9.00;99.90
7518;DHT22;3800;48.922;9.444;2023-11-21T09:59:14;8.90;99.90
7518;DHT22;3800;48.922;9.444;2023-11-21T10:01:42;8.90;99.90
7518;DHT22;3800;48.922;9.444;2023-11-21T10:04:10;9.00;99.90
7518;DHT22;3800;48.922;9.444;2023-11-21T10:06:39;9.10;99.90
7518;DHT22;3800;48.922;9.444;2023-11-21T10:09:10;9.10;99.90
7518;DHT22;3800;48.922;9.444;2023-11-21T10:11:40;9.20;99.90
7518;DHT22;3800;48.922;9.444;2023-11-21T10:14:10;9.20;99.90
7518;DHT22;3800;48.922;9.444;2023-11-21T10:16:40;9.20;99.90
7518;DHT22;3800;48.922;9.444;2023-11-21T10:19:09;9.20;99.90
7518;DHT22;3800;48.922;9.444;2023-11-21T10:21:38;9.20;99.90
7518;DHT22;3800;48.922;9.444;2023-11-21T10:24:06;9.20;99.90
7518;DHT22;3800;48.922;9.444;2023-11-21T10:26:34;9.20;99.90
7518;DHT22;3800;48.922;9.444;2023-11-21T10:29:03;9.20;99.90
7518;DHT22;3800;48.922;9.444;2023-11-21T10:31:32;9.20;99.90
7518;DHT22;3800;48.922;9.444;2023-11-21T10:34:12;9.20;99.90
7518;DHT22;3800;48.922;9.444;2023-11-21T10:36:41;9.10;99.90
7518;DHT22;3800;48.922;9.444;2023-11-21T10:39:09;9.10;99.90
7518;DHT22;3800;48.922;9.444;2023-11-21T10:41:38;9.10;99.90
7518;DHT22;3800;48.922;9.444;2023-11-21T10:44:06;9.10;99.90
7518;DHT22;3800;48.922;9.444;2023-11-21T10:46:35;9.20;99.90
7518;DHT22;3800;48.922;9.444;2023-11-21T10:49:03;9.20;99.90
7518;DHT22;3800;48.922;9.444;2023-11-21T10:51:32;9.20;99.90
7518;DHT22;3800;48.922;9.444;2023-11-21T10:54:00;9.30;99.90
7518;DHT22;3800;48.922;9.444;2023-11-21T10:56:29;9.30;99.90
7518;DHT22;3800;48.922;9.444;2023-11-21T10:58:57;9.30;99.90
7518;DHT22;3800;48.922;9.444;2023-11-21T11:01:27;9.40;99.90
7518;DHT22;3800;48.922;9.444;2023-11-21T11:03:55;9.40;99.90
7518;DHT22;3800;48.922;9.444;2023-11-21T11:06:23;9.50;99.90
7518;DHT22;3800;48.922;9.444;2023-11-21T11:08:53;9.50;99.90
7518;DHT22;3800;48.922;9.444;2023-11-21T11:11:21;9.50;99.90
7518;DHT22;3800;48.922;9.444;2023-11-21T11:13:49;9.60;99.90
7518;DHT22;3800;48.922;9.444;2023-11-21T11:16:18;9.60;99.90
7518;DHT22;3800;48.922;9.444;2023-11-21T11:18:46;9.60;99.90
7518;DHT22;3800;48.922;9.444;2023-11-21T11:21:27;9.60;99.90
7518;DHT22;3800;48.922;9.444;2023-11-21T11:24:18;9.60;99.90
7518;DHT22;3800;48.922;9.444;2023-11-21T11:26:57;9.70;99.90
7518;DHT22;3800;48.922;9.444;2023-11-21T11:29:52;9.70;99.90
7518;DHT22;3800;48.922;9.444;2023-11-21T11:32:40;9.70;99.90
7518;DHT22;3800;48.922;9.444;2023-11-21T11:35:20;9.80;99.90
7518;DHT22;3800;48.922;9.444;2023-11-21T11:37:47;9.90;99.90
7518;DHT22;3800;48.922;9.444;2023-11-21T11:40:16;9.90;99.90
7518;DHT22;3800;48.922;9.444;2023-11-21T11:42:56;9.90;99.90
7518;DHT22;3800;48.922;9.444;2023-11-21T11:45:25;9.80;99.90
7518;DHT22;3800;48.922;9.444;2023-11-21T11:47:57;9.80;99.90
7518;DHT22;3800;48.922;9.444;2023-11-21T11:50:25;9.80;99.90
7518;DHT22;3800;48.922;9.444;2023-11-21T11:52:53;9.80;99.90
7518;DHT22;3800;48.922;9.444;2023-11-21T11:55:22;9.70;99.90
7518;DHT22;3800;48.922;9.444;2023-11-21T11:57:51;9.70;99.90
7518;DHT22;3800;48.922;9.444;2023-11-21T12:00:19;9.70;99.90
7518;DHT22;3800;48.922;9.444;2023-11-21T12:02:51;9.60;99.90
7518;DHT22;3800;48.922;9.444;2023-11-21T12:05:27;9.60;99.90
7518;DHT22;3800;48.922;9.444;2023-11-21T12:07:56;9.60;99.90
7518;DHT22;3800;48.922;9.444;2023-11-21T12:10:25;9.50;99.90
7518;DHT22;3800;48.922;9.444;2023-11-21T12:12:55;9.50;99.90
7518;DHT22;3800;48.922;9.444;2023-11-21T12:15:23;9.50;99.90
7518;DHT22;3800;48.922;9.444;2023-11-21T12:17:51;9.40;99.90
7518;DHT22;3800;48.922;9.444;2023-11-21T12:20:21;9.40;99.90
7518;DHT22;3800;48.922;9.444;2023-11-21T12:22:50;9.50;99.90
7518;DHT22;3800;48.922;9.444;2023-11-21T12:25:19;9.50;99.90
7518;DHT22;3800;48.922;9.444;2023-11-21T12:27:51;9.60;99.90
7518;DHT22;3800;48.922;9.444;2023-11-21T12:30:21;9.70;99.90
7518;DHT22;3800;48.922;9.444;2023-11-21T12:32:50;9.70;99.90
7518;DHT22;3800;48.922;9.444;2023-11-21T12:35:18;9.70;99.90
7518;DHT22;3800;48.922;9.444;2023-11-21T12:37:47;9.70;99.90
7518;DHT22;3800;48.922;9.444;2023-11-21T12:40:16;9.70;99.90
7518;DHT22;3800;48.922;9.444;2023-11-21T12:42:45;9.70;99.90
7518;DHT22;3800;48.922;9.444;2023-11-21T12:45:20;9.60;99.90
7518;DHT22;3800;48.922;9.444;2023-11-21T12:47:50;9.60;99.90
7518;DHT22;3800;48.922;9.444;2023-11-21T12:50:20;9.60;99.90
7518;DHT22;3800;48.922;9.444;2023-11-21T12:52:51;9.60;99.90
7518;DHT22;3800;48.922;9.444;2023-11-21T12:55:20;9.50;99.90
7518;DHT22;3800;48.922;9.444;2023-11-21T12:57:51;9.50;99.90
7518;DHT22;3800;48.922;9.444;2023-11-21T13:00:19;9.50;99.90
7518;DHT22;3800;48.922;9.444;2023-11-21T13:02:54;9.50;99.90
7518;DHT22;3800;48.922;9.444;2023-11-21T13:05:32;9.50;99.90
7518;DHT22;3800;48.922;9.444;2023-11-21T13:08:02;9.50;99.90
7518;DHT22;3800;48.922;9.444;2023-11-21T13:10:30;9.50;99.90
7518;DHT22;3800;48.922;9.444;2023-11-21T13:12:58;9.50;99.90
7518;DHT22;3800;48.922;9.444;2023-11-21T13:15:27;9.60;99.90
7518;DHT22;3800;48.922;9.444;2023-11-21T13:17:55;9.60;99.90
7518;DHT22;3800;48.922;9.444;2023-11-21T13:20:25;9.50;99.90
7518;DHT22;3800;48.922;9.444;2023-11-21T13:22:54;9.50;99.90
7518;DHT22;3800;48.922;9.444;2023-11-21T13:25:25;9.50;99.90
7518;DHT22;3800;48.922;9.444;2023-11-21T13:27:55;9.50;99.90
7518;DHT22;3800;48.922;9.444;2023-11-21T13:30:24;9.40;99.90
7518;DHT22;3800;48.922;9.444;2023-11-21T13:32:54;9.40;99.90
7518;DHT22;3800;48.922;9.444;2023-11-21T13:35:23;9.40;99.90
7518;DHT22;3800;48.922;9.444;2023-11-21T13:38:03;9.40;99.90
7518;DHT22;3800;48.922;9.444;2023-11-21T13:40:26;9.40;99.90
7518;DHT22;3800;48.922;9.444;2023-11-21T13:42:54;9.30;99.90
7518;DHT22;3800;48.922;9.444;2023-11-21T13:45:23;9.30;99.90
7518;DHT22;3800;48.922;9.444;2023-11-21T13:47:52;9.30;99.90
7518;DHT22;3800;48.922;9.444;2023-11-21T13:50:22;9.30;99.90
7518;DHT22;3800;48.922;9.444;2023-11-21T13:53:00;9.20;99.90
7518;DHT22;3800;48.922;9.444;2023-11-21T13:55:31;9.20;99.90
7518;DHT22;3800;48.922;9.444;2023-11-21T13:58:00;9.20;99.90
7518;DHT22;3800;48.922;9.444;2023-11-21T14:00:28;9.20;99.90
7518;DHT22;3800;48.922;9.444;2023-11-21T14:03:03;9.10;99.90
7518;DHT22;3800;48.922;9.444;2023-11-21T14:05:31;9.10;99.90
7518;DHT22;3800;48.922;9.444;2023-11-21T14:08:00;9.10;99.90
7518;DHT22;3800;48.922;9.444;2023-11-21T14:10:29;9.10;99.90
7518;DHT22;3800;48.922;9.444;2023-11-21T14:13:05;9.10;99.90
7518;DHT22;3800;48.922;9.444;2023-11-21T14:15:33;9.10;99.90
7518;DHT22;3800;48.922;9.444;2023-11-21T14:18:01;9.20;99.90
7518;DHT22;3800;48.922;9.444;2023-11-21T14:20:30;9.20;99.90
7518;DHT22;3800;48.922;9.444;2023-11-21T14:22:59;9.30;99.90
7518;DHT22;3800;48.922;9.444;2023-11-21T14:25:27;9.30;99.90
7518;DHT22;3800;48.922;9.444;2023-11-21T14:27:55;9.30;99.90
7518;DHT22;3800;48.922;9.444;2023-11-21T14:30:24;9.30;99.90
7518;DHT22;3800;48.922;9.444;2023-11-21T14:32:53;9.30;99.90
7518;DHT22;3800;48.922;9.444;2023-11-21T14:35:21;9.30;99.90
7518;DHT22;3800;48.922;9.444;2023-11-21T14:37:50;9.30;99.90
7518;DHT22;3800;48.922;9.444;2023-11-21T14:40:19;9.30;99.90
7518;DHT22;3800;48.922;9.444;2023-11-21T14:42:47;9.20;99.90
7518;DHT22;3800;48.922;9.444;2023-11-21T14:45:15;9.20;99.90
7518;DHT22;3800;48.922;9.444;2023-11-21T14:47:43;9.20;99.90
7518;DHT22;3800;48.922;9.444;2023-11-21T14:50:12;9.20;99.90
7518;DHT22;3800;48.922;9.444;2023-11-21T14:52:47;9.20;99.90
7518;DHT22;3800;48.922;9.444;2023-11-21T14:55:26;9.20;99.90
7518;DHT22;3800;48.922;9.444;2023-11-21T14:58:04;9.20;99.90
7518;DHT22;3800;48.922;9.444;2023-11-21T15:00:33;9.10;99.90
7518;DHT22;3800;48.922;9.444;2023-11-21T15:03:08;9.10;99.90
7518;DHT22;3800;48.922;9.444;2023-11-21T15:05:37;9.00;99.90
7518;DHT22;3800;48.922;9.444;2023-11-21T15:08:07;9.00;99.90
7518;DHT22;3800;48.922;9.444;2023-11-21T15:10:36;9.00;99.90
7518;DHT22;3800;48.922;9.444;2023-11-21T15:13:06;8.90;99.90
7518;DHT22;3800;48.922;9.444;2023-11-21T15:15:34;8.90;99.90
7518;DHT22;3800;48.922;9.444;2023-11-21T15:18:03;8.90;99.90
7518;DHT22;3800;48.922;9.444;2023-11-21T15:20:31;8.90;99.90
7518;DHT22;3800;48.922;9.444;2023-11-21T15:22:59;8.90;99.90
7518;DHT22;3800;48.922;9.444;2023-11-21T15:25:28;8.90;99.90
7518;DHT22;3800;48.922;9.444;2023-11-21T15:27:56;8.80;99.90
7518;DHT22;3800;48.922;9.444;2023-11-21T15:30:25;8.80;99.90
7518;DHT22;3800;48.922;9.444;2023-11-21T15:32:53;8.80;99.90
7518;DHT22;3800;48.922;9.444;2023-11-21T15:35:22;8.80;99.90
7518;DHT22;3800;48.922;9.444;2023-11-21T15:37:50;8.80;99.90
7518;DHT22;3800;48.922;9.444;2023-11-21T15:40:18;8.70;99.90
7518;DHT22;3800;48.922;9.444;2023-11-21T15:42:46;8.70;99.90
7518;DHT22;3800;48.922;9.444;2023-11-21T15:45:15;8.70;99.90
7518;DHT22;3800;48.922;9.444;2023-11-21T15:47:43;8.70;99.90
7518;DHT22;3800;48.922;9.444;2023-11-21T15:50:12;8.70;99.90
7518;DHT22;3800;48.922;9.444;2023-11-21T15:52:41;8.80;99.90
7518;DHT22;3800;48.922;9.444;2023-11-21T15:55:09;8.70;99.90
7518;DHT22;3800;48.922;9.444;2023-11-21T15:57:37;8.70;99.90
7518;DHT22;3800;48.922;9.444;2023-11-21T16:00:08;8.70;99.90
7518;DHT22;3800;48.922;9.444;2023-11-21T16:02:37;8.70;99.90
7518;DHT22;3800;48.922;9.444;2023-11-21T16:05:06;8.60;99.90
7518;DHT22;3800;48.922;9.444;2023-11-21T16:07:35;8.60;99.90
7518;DHT22;3800;48.922;9.444;2023-11-21T16:10:05;8.60;99.90
7518;DHT22;3800;48.922;9.444;2023-11-21T16:12:36;8.60;99.90
7518;DHT22;3800;48.922;9.444;2023-11-21T16:15:06;8.50;99.90
7518;DHT22;3800;48.922;9.444;2023-11-21T16:17:35;8.50;99.90
7518;DHT22;3800;48.922;9.444;2023-11-21T16:20:05;8.50;99.90
7518;DHT22;3800;48.922;9.444;2023-11-21T16:22:34;8.50;99.90
7518;DHT22;3800;48.922;9.444;2023-11-21T16:25:02;8.40;99.90
7518;DHT22;3800;48.922;9.444;2023-11-21T16:27:31;8.40;99.90
7518;DHT22;3800;48.922;9.444;2023-11-21T16:29:59;8.30;99.90